sensor_id;sensor_type;location;lat;lon;timestamp;pressure;altitude;pressure_sealevel;temperature;humidity
70684;BME280;58263;48.146;11.440;2023-11-19T00:00:15;95769.38;;;4.62;100.00
70684;BME280;58263;48.146;11.440;2023-11-19T00:02:41;95769.53;;;4.53;100.00
70684;BME280;58263;48.146;11.440;2023-11-19T00:05:07;95760.66;;;4.68;100.00
70684;BME280;58263;48.146;11.440;2023-11-19T00:07:35;95757.16;;;4.67;100.00
70684;BME280;58263;48.146;11.440;2023-11-19T00:10:00;95752.69;;;4.68;100.00
70684;BME280;58263;48.146;11.440;2023-11-19T00:12:29;95739.59;;;4.66;100.00
70684;BME280;58263;48.146;11.440;2023-11-19T00:14:54;95734.28;;;4.66;100.00
70684;BME280;58263;48.146;11.440;2023-11-19T00:17:20;95733.50;;;4.72;100.00
70684;BME280;58263;48.146;11.440;2023-11-19T00:19:45;95727.19;;;4.73;100.00
70684;BME280;58263;48.146;11.440;2023-11-19T00:22:11;95727.75;;;4.69;100.00
70684;BME280;58263;48.146;11.440;2023-11-19T00:24:36;95721.03;;;4.73;100.00
70684;BME280;58263;48.146;11.440;2023-11-19T00:27:02;95725.34;;;4.74;100.00
70684;BME280;58263;48.146;11.440;2023-11-19T00:29:28;95718.16;;;4.68;100.00
70684;BME280;58263;48.146;11.440;2023-11-19T00:31:53;95703.84;;;4.69;100.00
70684;BME280;58263;48.146;11.440;2023-11-19T00:34:18;95711.69;;;4.84;100.00
70684;BME280;58263;48.146;11.440;2023-11-19T00:36:46;95706.78;;;4.81;100.00
70684;BME280;58263;48.146;11.440;2023-11-19T00:39:11;95710.69;;;4.85;100.00
70684;BME280;58263;48.146;11.440;2023-11-19T00:41:40;95702.88;;;4.77;100.00
70684;BME280;58263;48.146;11.440;2023-11-19T00:44:05;95703.56;;;4.85;100.00
70684;BME280;58263;48.146;11.440;2023-11-19T00:46:30;95701.72;;;4.86;100.00
70684;BME280;58263;48.146;11.440;2023-11-19T00:48:58;95692.47;;;4.82;100.00
70684;BME280;58263;48.146;11.440;2023-11-19T00:51:25;95694.53;;;4.86;100.00
70684;BME280;58263;48.146;11.440;2023-11-19T00:53:51;95698.00;;;4.80;100.00
70684;BME280;58263;48.146;11.440;2023-11-19T00:56:18;95697.34;;;4.78;100.00
70684;BME280;58263;48.146;11.440;2023-11-19T00:58:44;95684.75;;;4.87;100.00
70684;BME280;58263;48.146;11.440;2023-11-19T01:01:11;95684.75;;;4.87;100.00
70684;BME280;58263;48.146;11.440;2023-11-19T01:03:36;95688.03;;;4.89;100.00
70684;BME280;58263;48.146;11.440;2023-11-19T01:06:02;95688.84;;;4.89;100.00
70684;BME280;58263;48.146;11.440;2023-11-19T01:08:27;95684.19;;;4.98;100.00
70684;BME280;58263;48.146;11.440;2023-11-19T01:10:52;95679.88;;;4.97;100.00
70684;BME280;58263;48.146;11.440;2023-11-19T01:13:18;95675.41;;;5.04;100.00
70684;BME280;58263;48.146;11.440;2023-11-19T01:15:43;95679.28;;;4.95;100.00
70684;BME280;58263;48.146;11.440;2023-11-19T01:18:08;95675.59;;;4.96;100.00
70684;BME280;58263;48.146;11.440;2023-11-19T01:20:34;95679.88;;;4.97;100.00
70684;BME280;58263;48.146;11.440;2023-11-19T01:23:00;95671.31;;;4.95;100.00
70684;BME280;58263;48.146;11.440;2023-11-19T01:25:25;95668.03;;;5.00;100.00
70684;BME280;58263;48.146;11.440;2023-11-19T01:27:50;95671.09;;;4.97;100.00
70684;BME280;58263;48.146;11.440;2023-11-19T01:30:15;95670.09;;;4.98;100.00
70684;BME280;58263;48.146;11.440;2023-11-19T01:32:41;95662.72;;;5.00;100.00
70684;BME280;58263;48.146;11.440;2023-11-19T01:35:06;95660.94;;;5.14;100.00
70684;BME280;58263;48.146;11.440;2023-11-19T01:37:33;95650.72;;;5.11;100.00
70684;BME280;58263;48.146;11.440;2023-11-19T01:39:59;95657.91;;;5.17;100.00
70684;BME280;58263;48.146;11.440;2023-11-19T01:42:25;95650.09;;;5.15;100.00
70684;BME280;58263;48.146;11.440;2023-11-19T01:45:00;95651.16;;;5.21;100.00
70684;BME280;58263;48.146;11.440;2023-11-19T01:47:27;95638.72;;;5.28;100.00
70684;BME280;58263;48.146;11.440;2023-11-19T01:49:53;95641.59;;;5.33;100.00
70684;BME280;58263;48.146;11.440;2023-11-19T01:52:19;95629.72;;;5.42;100.00
70684;BME280;58263;48.146;11.440;2023-11-19T01:54:45;95634.88;;;5.44;100.00
70684;BME280;58263;48.146;11.440;2023-11-19T01:57:11;95632.25;;;5.51;100.00
70684;BME280;58263;48.146;11.440;2023-11-19T01:59:37;95633.47;;;5.55;100.00
70684;BME280;58263;48.146;11.440;2023-11-19T02:02:03;95626.91;;;5.64;100.00
70684;BME280;58263;48.146;11.440;2023-11-19T02:04:30;95618.94;;;5.64;100.00
70684;BME280;58263;48.146;11.440;2023-11-19T02:06:58;95614.84;;;5.68;100.00
70684;BME280;58263;48.146;11.440;2023-11-19T02:09:23;95616.28;;;5.78;100.00
70684;BME280;58263;48.146;11.440;2023-11-19T02:11:49;95610.19;;;5.90;100.00
70684;BME280;58263;48.146;11.440;2023-11-19T02:14:17;95603.03;;;5.98;100.00
70684;BME280;58263;48.146;11.440;2023-11-19T02:16:42;95602.81;;;6.06;100.00
70684;BME280;58263;48.146;11.440;2023-11-19T02:19:08;95592.78;;;6.15;100.00
70684;BME280;58263;48.146;11.440;2023-11-19T02:21:35;95592.97;;;6.26;100.00
70684;BME280;58263;48.146;11.440;2023-11-19T02:24:05;95580.06;;;6.37;100.00
70684;BME280;58263;48.146;11.440;2023-11-19T02:26:49;95579.63;;;6.47;100.00
70684;BME280;58263;48.146;11.440;2023-11-19T02:29:15;95569.34;;;6.57;100.00
70684;BME280;58263;48.146;11.440;2023-11-19T02:31:40;95563.78;;;6.58;100.00
70684;BME280;58263;48.146;11.440;2023-11-19T02:34:05;95559.28;;;6.66;100.00
70684;BME280;58263;48.146;11.440;2023-11-19T02:36:31;95555.94;;;6.77;100.00
70684;BME280;58263;48.146;11.440;2023-11-19T02:38:57;95554.28;;;6.83;100.00
70684;BME280;58263;48.146;11.440;2023-11-19T02:41:22;95559.81;;;6.88;100.00
70684;BME280;58263;48.146;11.440;2023-11-19T02:43:48;95552.22;;;6.91;100.00
70684;BME280;58263;48.146;11.440;2023-11-19T02:46:13;95552.56;;;7.02;100.00
70684;BME280;58263;48.146;11.440;2023-11-19T02:48:39;95535.31;;;7.04;100.00
70684;BME280;58263;48.146;11.440;2023-11-19T02:51:05;95528.31;;;7.10;100.00
70684;BME280;58263;48.146;11.440;2023-11-19T02:53:35;95518.63;;;7.16;100.00
70684;BME280;58263;48.146;11.440;2023-11-19T02:56:02;95523.97;;;7.16;100.00
70684;BME280;58263;48.146;11.440;2023-11-19T02:58:36;95517.56;;;7.23;100.00
70684;BME280;58263;48.146;11.440;2023-11-19T03:01:02;95522.47;;;7.26;100.00
70684;BME280;58263;48.146;11.440;2023-11-19T03:03:37;95512.19;;;7.30;100.00
70684;BME280;58263;48.146;11.440;2023-11-19T03:06:07;95512.59;;;7.34;100.00
70684;BME280;58263;48.146;11.440;2023-11-19T03:08:34;95513.56;;;7.39;100.00
70684;BME280;58263;48.146;11.440;2023-11-19T03:11:00;95507.56;;;7.44;100.00
70684;BME280;58263;48.146;11.440;2023-11-19T03:13:25;95507.97;;;7.48;100.00
70684;BME280;58263;48.146;11.440;2023-11-19T03:15:52;95504.59;;;7.59;100.00
70684;BME280;58263;48.146;11.440;2023-11-19T03:18:17;95500.28;;;7.58;100.00
70684;BME280;58263;48.146;11.440;2023-11-19T03:20:42;95511.13;;;7.63;100.00
70684;BME280;58263;48.146;11.440;2023-11-19T03:23:08;95495.28;;;7.68;100.00
70684;BME280;58263;48.146;11.440;2023-11-19T03:25:33;95502.03;;;7.71;100.00
70684;BME280;58263;48.146;11.440;2023-11-19T03:28:00;95497.91;;;7.75;100.00
70684;BME280;58263;48.146;11.440;2023-11-19T03:30:29;95501.53;;;7.81;100.00
70684;BME280;58263;48.146;11.440;2023-11-19T03:32:56;95499.03;;;7.86;100.00
70684;BME280;58263;48.146;11.440;2023-11-19T03:35:22;95492.84;;;7.85;100.00
70684;BME280;58263;48.146;11.440;2023-11-19T03:37:47;95500.88;;;7.85;100.00
70684;BME280;58263;48.146;11.440;2023-11-19T03:40:12;95503.06;;;7.95;100.00
70684;BME280;58263;48.146;11.440;2023-11-19T03:42:38;95502.63;;;7.98;100.00
70684;BME280;58263;48.146;11.440;2023-11-19T03:45:08;95511.81;;;8.02;100.00
70684;BME280;58263;48.146;11.440;2023-11-19T03:47:34;95508.69;;;8.05;100.00
70684;BME280;58263;48.146;11.440;2023-11-19T03:50:00;95508.25;;;8.08;100.00
70684;BME280;58263;48.146;11.440;2023-11-19T03:52:25;95510.66;;;8.17;100.00
70684;BME280;58263;48.146;11.440;2023-11-19T03:54:52;95511.03;;;8.20;100.00
70684;BME280;58263;48.146;11.440;2023-11-19T03:57:18;95506.50;;;8.21;100.00
70684;BME280;58263;48.146;11.440;2023-11-19T03:59:44;95501.31;;;8.26;100.00
70684;BME280;58263;48.146;11.440;2023-11-19T04:02:09;95500.28;;;8.27;100.00
70684;BME280;58263;48.146;11.440;2023-11-19T04:04:35;95508.91;;;8.29;100.00
70684;BME280;58263;48.146;11.440;2023-11-19T04:07:01;95510.16;;;8.26;100.00
70684;BME280;58263;48.146;11.440;2023-11-19T04:09:27;95504.59;;;8.28;100.00
70684;BME280;58263;48.146;11.440;2023-11-19T04:11:53;95504.59;;;8.28;100.00
70684;BME280;58263;48.146;11.440;2023-11-19T04:14:18;95508.59;;;8.37;100.00
70684;BME280;58263;48.146;11.440;2023-11-19T04:16:44;95517.50;;;8.31;100.00
70684;BME280;58263;48.146;11.440;2023-11-19T04:19:10;95513.34;;;8.35;100.00
70684;BME280;58263;48.146;11.440;2023-11-19T04:21:36;95512.06;;;8.38;100.00
70684;BME280;58263;48.146;11.440;2023-11-19T04:24:01;95520.72;;;8.40;100.00
70684;BME280;58263;48.146;11.440;2023-11-19T04:26:26;95522.09;;;8.42;100.00
70684;BME280;58263;48.146;11.440;2023-11-19T04:28:52;95524.94;;;8.48;100.00
70684;BME280;58263;48.146;11.440;2023-11-19T04:31:17;95522.88;;;8.50;100.00
70684;BME280;58263;48.146;11.440;2023-11-19T04:33:43;95521.91;;;8.44;100.00
70684;BME280;58263;48.146;11.440;2023-11-19T04:36:09;95519.38;;;8.49;100.00
70684;BME280;58263;48.146;11.440;2023-11-19T04:38:34;95515.44;;;8.52;100.00
70684;BME280;58263;48.146;11.440;2023-11-19T04:41:00;95516.13;;;8.47;100.00
70684;BME280;58263;48.146;11.440;2023-11-19T04:43:25;95509.53;;;8.50;100.00
70684;BME280;58263;48.146;11.440;2023-11-19T04:45:50;95513.22;;;8.49;100.00
70684;BME280;58263;48.146;11.440;2023-11-19T04:48:16;95513.53;;;8.59;100.00
70684;BME280;58263;48.146;11.440;2023-11-19T04:50:41;95508.84;;;8.54;100.00
70684;BME280;58263;48.146;11.440;2023-11-19T04:53:07;95516.41;;;8.57;100.00
70684;BME280;58263;48.146;11.440;2023-11-19T04:55:32;95508.19;;;8.59;100.00
70684;BME280;58263;48.146;11.440;2023-11-19T04:57:57;95517.97;;;8.65;100.00
70684;BME280;58263;48.146;11.440;2023-11-19T05:00:22;95514.72;;;8.63;100.00
70684;BME280;58263;48.146;11.440;2023-11-19T05:02:48;95522.28;;;8.66;100.00
70684;BME280;58263;48.146;11.440;2023-11-19T05:05:15;95527.78;;;8.71;100.00
70684;BME280;58263;48.146;11.440;2023-11-19T05:07:40;95523.25;;;8.72;100.00
70684;BME280;58263;48.146;11.440;2023-11-19T05:10:06;95539.97;;;8.67;100.00
70684;BME280;58263;48.146;11.440;2023-11-19T05:12:32;95522.44;;;8.71;100.00
70684;BME280;58263;48.146;11.440;2023-11-19T05:14:57;95527.78;;;8.71;100.00
70684;BME280;58263;48.146;11.440;2023-11-19T05:17:23;95536.84;;;8.70;100.00
70684;BME280;58263;48.146;11.440;2023-11-19T05:19:48;95534.63;;;8.67;100.00
70684;BME280;58263;48.146;11.440;2023-11-19T05:22:14;95540.56;;;8.69;100.00
70684;BME280;58263;48.146;11.440;2023-11-19T05:24:39;95541.81;;;8.67;100.00
70684;BME280;58263;48.146;11.440;2023-11-19T05:27:05;95550.44;;;8.69;100.00
70684;BME280;58263;48.146;11.440;2023-11-19T05:29:32;95546.69;;;8.70;100.00
70684;BME280;58263;48.146;11.440;2023-11-19T05:31:57;95540.09;;;8.72;100.00
70684;BME280;58263;48.146;11.440;2023-11-19T05:34:22;95546.34;;;8.66;100.00
70684;BME280;58263;48.146;11.440;2023-11-19T05:36:48;95561.94;;;8.69;100.00
70684;BME280;58263;48.146;11.440;2023-11-19T05:39:14;95557.41;;;8.70;100.00
70684;BME280;58263;48.146;11.440;2023-11-19T05:41:40;95557.19;;;8.71;100.00
70684;BME280;58263;48.146;11.440;2023-11-19T05:44:05;95554.53;;;8.71;100.00
70684;BME280;58263;48.146;11.440;2023-11-19T05:46:31;95563.59;;;8.70;100.00
70684;BME280;58263;48.146;11.440;2023-11-19T05:48:56;95565.66;;;8.68;100.00
70684;BME280;58263;48.146;11.440;2023-11-19T05:51:22;95554.38;;;8.66;100.00
70684;BME280;58263;48.146;11.440;2023-11-19T05:53:49;95553.34;;;8.67;100.00
70684;BME280;58263;48.146;11.440;2023-11-19T05:56:15;95554.94;;;8.68;100.00
70684;BME280;58263;48.146;11.440;2023-11-19T05:58:46;95550.88;;;8.66;100.00
70684;BME280;58263;48.146;11.440;2023-11-19T06:01:13;95553.34;;;8.67;100.00
70684;BME280;58263;48.146;11.440;2023-11-19T06:03:38;95551.84;;;8.71;100.00
70684;BME280;58263;48.146;11.440;2023-11-19T06:06:04;95547.38;;;8.65;100.00
70684;BME280;58263;48.146;11.440;2023-11-19T06:08:30;95545.44;;;8.72;100.00
70684;BME280;58263;48.146;11.440;2023-11-19T06:10:55;95554.53;;;8.71;100.00
70684;BME280;58263;48.146;11.440;2023-11-19T06:13:21;95557.78;;;8.73;100.00
70684;BME280;58263;48.146;11.440;2023-11-19T06:15:46;95557.41;;;8.70;100.00
70684;BME280;58263;48.146;11.440;2023-11-19T06:18:15;95557.19;;;8.71;100.00
70684;BME280;58263;48.146;11.440;2023-11-19T06:20:40;95547.09;;;8.73;100.00
70684;BME280;58263;48.146;11.440;2023-11-19T06:23:06;95537.19;;;8.74;100.00
70684;BME280;58263;48.146;11.440;2023-11-19T06:25:31;95552.22;;;8.75;100.00
70684;BME280;58263;48.146;11.440;2023-11-19T06:27:57;95549.91;;;8.78;100.00
70684;BME280;58263;48.146;11.440;2023-11-19T06:30:23;95554.66;;;8.76;100.00
70684;BME280;58263;48.146;11.440;2023-11-19T06:32:48;95545.13;;;8.80;100.00
70684;BME280;58263;48.146;11.440;2023-11-19T06:35:14;95546.41;;;8.78;100.00
70684;BME280;58263;48.146;11.440;2023-11-19T06:37:40;95550.63;;;8.86;100.00
70684;BME280;58263;48.146;11.440;2023-11-19T06:40:06;95544.94;;;8.82;100.00
70684;BME280;58263;48.146;11.440;2023-11-19T06:42:32;95553.31;;;8.86;100.00
70684;BME280;58263;48.146;11.440;2023-11-19T06:44:57;95548.81;;;8.86;100.00
70684;BME280;58263;48.146;11.440;2023-11-19T06:47:25;95557.56;;;8.93;100.00
70684;BME280;58263;48.146;11.440;2023-11-19T06:49:51;95564.16;;;8.91;100.00
70684;BME280;58263;48.146;11.440;2023-11-19T06:52:17;95566.38;;;8.94;100.00
70684;BME280;58263;48.146;11.440;2023-11-19T06:54:42;95569.06;;;8.94;100.00
70684;BME280;58263;48.146;11.440;2023-11-19T06:57:07;95567.00;;;8.96;100.00
70684;BME280;58263;48.146;11.440;2023-11-19T06:59:34;95557.91;;;8.97;100.00
70684;BME280;58263;48.146;11.440;2023-11-19T07:01:59;95564.09;;;8.98;100.00
70684;BME280;58263;48.146;11.440;2023-11-19T07:04:25;95569.78;;;9.01;100.00
70684;BME280;58263;48.146;11.440;2023-11-19T07:06:50;95568.53;;;9.04;100.00
70684;BME280;58263;48.146;11.440;2023-11-19T07:09:17;95568.09;;;9.07;100.00
70684;BME280;58263;48.146;11.440;2023-11-19T07:11:43;95575.50;;;9.05;100.00
70684;BME280;58263;48.146;11.440;2023-11-19T07:14:11;95573.78;;;9.10;100.00
70684;BME280;58263;48.146;11.440;2023-11-19T07:16:36;95578.25;;;9.17;100.00
70684;BME280;58263;48.146;11.440;2023-11-19T07:19:03;95580.31;;;9.14;100.00
70684;BME280;58263;48.146;11.440;2023-11-19T07:21:28;95572.31;;;9.14;100.00
70684;BME280;58263;48.146;11.440;2023-11-19T07:23:54;95581.09;;;9.22;100.00
70684;BME280;58263;48.146;11.440;2023-11-19T07:26:19;95582.69;;;9.23;100.00
70684;BME280;58263;48.146;11.440;2023-11-19T07:28:45;95587.16;;;9.29;100.00
70684;BME280;58263;48.146;11.440;2023-11-19T07:31:10;95589.59;;;9.30;100.00
70684;BME280;58263;48.146;11.440;2023-11-19T07:33:35;95589.50;;;9.37;100.00
70684;BME280;58263;48.146;11.440;2023-11-19T07:36:01;95593.84;;;9.38;100.00
70684;BME280;58263;48.146;11.440;2023-11-19T07:38:26;95600.00;;;9.39;100.00
70684;BME280;58263;48.146;11.440;2023-11-19T07:40:52;95600.22;;;9.37;100.00
70684;BME280;58263;48.146;11.440;2023-11-19T07:43:17;95606.75;;;9.41;100.00
70684;BME280;58263;48.146;11.440;2023-11-19T07:45:42;95606.91;;;9.46;100.00
70684;BME280;58263;48.146;11.440;2023-11-19T07:48:11;95605.41;;;9.51;100.00
70684;BME280;58263;48.146;11.440;2023-11-19T07:50:38;95616.13;;;9.51;100.00
70684;BME280;58263;48.146;11.440;2023-11-19T07:53:03;95618.69;;;9.57;100.00
70684;BME280;58263;48.146;11.440;2023-11-19T07:55:29;95620.53;;;9.57;100.00
70684;BME280;58263;48.146;11.440;2023-11-19T07:57:54;95619.75;;;9.56;100.00
70684;BME280;58263;48.146;11.440;2023-11-19T08:00:20;95629.19;;;9.59;100.00
70684;BME280;58263;48.146;11.440;2023-11-19T08:02:46;95614.28;;;9.63;100.00
70684;BME280;58263;48.146;11.440;2023-11-19T08:05:11;95616.50;;;9.66;100.00
70684;BME280;58263;48.146;11.440;2023-11-19T08:07:37;95622.00;;;9.71;100.00
70684;BME280;58263;48.146;11.440;2023-11-19T08:10:02;95618.06;;;9.74;100.00
70684;BME280;58263;48.146;11.440;2023-11-19T08:12:28;95616.78;;;9.76;100.00
70684;BME280;58263;48.146;11.440;2023-11-19T08:14:54;95610.16;;;9.79;100.00
70684;BME280;58263;48.146;11.440;2023-11-19T08:17:19;95611.09;;;9.85;100.00
70684;BME280;58263;48.146;11.440;2023-11-19T08:19:44;95612.41;;;9.94;100.00
70684;BME280;58263;48.146;11.440;2023-11-19T08:22:10;95614.38;;;9.98;100.00
70684;BME280;58263;48.146;11.440;2023-11-19T08:24:35;95617.69;;;10.12;100.00
70684;BME280;58263;48.146;11.440;2023-11-19T08:27:00;95605.78;;;10.08;100.00
70684;BME280;58263;48.146;11.440;2023-11-19T08:29:26;95623.50;;;10.09;100.00
70684;BME280;58263;48.146;11.440;2023-11-19T08:31:52;95618.72;;;10.11;100.00
70684;BME280;58263;48.146;11.440;2023-11-19T08:34:18;95617.69;;;10.12;100.00
70684;BME280;58263;48.146;11.440;2023-11-19T08:36:43;95620.13;;;10.14;100.00
70684;BME280;58263;48.146;11.440;2023-11-19T08:39:09;95612.34;;;10.24;100.00
70684;BME280;58263;48.146;11.440;2023-11-19T08:41:34;95612.56;;;10.23;100.00
70684;BME280;58263;48.146;11.440;2023-11-19T08:43:59;95621.09;;;10.31;100.00
70684;BME280;58263;48.146;11.440;2023-11-19T08:46:25;95614.59;;;10.39;100.00
70684;BME280;58263;48.146;11.440;2023-11-19T08:48:51;95616.81;;;10.42;100.00
70684;BME280;58263;48.146;11.440;2023-11-19T08:51:16;95614.00;;;10.49;100.00
70684;BME280;58263;48.146;11.440;2023-11-19T08:53:41;95621.69;;;10.45;100.00
70684;BME280;58263;48.146;11.440;2023-11-19T08:56:07;95628.22;;;10.49;100.00
70684;BME280;58263;48.146;11.440;2023-11-19T08:58:32;95625.66;;;10.55;100.00
70684;BME280;58263;48.146;11.440;2023-11-19T09:00:58;95618.56;;;10.48;100.00
70684;BME280;58263;48.146;11.440;2023-11-19T09:03:24;95611.34;;;10.49;100.00
70684;BME280;58263;48.146;11.440;2023-11-19T09:05:52;95616.34;;;10.45;100.00
70684;BME280;58263;48.146;11.440;2023-11-19T09:08:19;95613.41;;;10.47;100.00
70684;BME280;58263;48.146;11.440;2023-11-19T09:10:44;95605.72;;;10.51;100.00
70684;BME280;58263;48.146;11.440;2023-11-19T09:13:09;95614.25;;;10.47;100.00
70684;BME280;58263;48.146;11.440;2023-11-19T09:15:35;95606.53;;;10.51;100.00
70684;BME280;58263;48.146;11.440;2023-11-19T09:18:00;95607.59;;;10.62;100.00
70684;BME280;58263;48.146;11.440;2023-11-19T09:20:25;95621.38;;;10.77;100.00
70684;BME280;58263;48.146;11.440;2023-11-19T09:22:51;95628.94;;;10.80;100.00
70684;BME280;58263;48.146;11.440;2023-11-19T09:25:16;95624.13;;;10.94;100.00
70684;BME280;58263;48.146;11.440;2023-11-19T09:27:43;95622.50;;;10.93;100.00
70684;BME280;58263;48.146;11.440;2023-11-19T09:30:09;95631.25;;;10.89;100.00
70684;BME280;58263;48.146;11.440;2023-11-19T09:32:34;95632.31;;;10.88;100.00
70684;BME280;58263;48.146;11.440;2023-11-19T09:34:59;95642.22;;;10.87;100.00
70684;BME280;58263;48.146;11.440;2023-11-19T09:37:25;95633.81;;;10.83;100.00
70684;BME280;58263;48.146;11.440;2023-11-19T09:39:50;95645.50;;;10.77;100.00
70684;BME280;58263;48.146;11.440;2023-11-19T09:42:16;95635.69;;;10.83;100.00
70684;BME280;58263;48.146;11.440;2023-11-19T09:44:43;95634.19;;;10.87;100.00
70684;BME280;58263;48.146;11.440;2023-11-19T09:47:10;95630.31;;;10.95;100.00
70684;BME280;58263;48.146;11.440;2023-11-19T09:49:36;95632.66;;;10.91;100.00
70684;BME280;58263;48.146;11.440;2023-11-19T09:52:01;95627.16;;;11.10;100.00
70684;BME280;58263;48.146;11.440;2023-11-19T09:54:27;95626.75;;;11.30;100.00
70684;BME280;58263;48.146;11.440;2023-11-19T09:56:53;95616.09;;;11.64;98.07
70684;BME280;58263;48.146;11.440;2023-11-19T09:59:19;95606.63;;;11.73;97.16
70684;BME280;58263;48.146;11.440;2023-11-19T10:01:45;95598.78;;;11.72;97.37
70684;BME280;58263;48.146;11.440;2023-11-19T10:04:15;95606.97;;;11.77;96.84
70684;BME280;58263;48.146;11.440;2023-11-19T10:06:41;95594.28;;;11.89;95.64
70684;BME280;58263;48.146;11.440;2023-11-19T10:09:07;95594.03;;;11.91;95.66
70684;BME280;58263;48.146;11.440;2023-11-19T10:11:32;95591.50;;;11.84;94.98
70684;BME280;58263;48.146;11.440;2023-11-19T10:13:59;95584.53;;;12.00;94.33
70684;BME280;58263;48.146;11.440;2023-11-19T10:16:29;95588.13;;;12.06;93.71
70684;BME280;58263;48.146;11.440;2023-11-19T10:18:56;95595.38;;;12.39;92.57
70684;BME280;58263;48.146;11.440;2023-11-19T10:21:21;95584.47;;;13.07;88.20
70684;BME280;58263;48.146;11.440;2023-11-19T10:23:51;95582.72;;;13.40;86.71
70684;BME280;58263;48.146;11.440;2023-11-19T10:26:17;95586.06;;;13.47;85.53
70684;BME280;58263;48.146;11.440;2023-11-19T10:28:43;95583.91;;;13.49;84.84
70684;BME280;58263;48.146;11.440;2023-11-19T10:31:11;95577.59;;;13.88;82.84
70684;BME280;58263;48.146;11.440;2023-11-19T10:33:36;95582.66;;;14.49;80.48
70684;BME280;58263;48.146;11.440;2023-11-19T10:36:04;95575.53;;;14.33;81.36
70684;BME280;58263;48.146;11.440;2023-11-19T10:38:30;95572.44;;;14.19;80.76
70684;BME280;58263;48.146;11.440;2023-11-19T10:40:56;95570.81;;;14.56;78.81
70684;BME280;58263;48.146;11.440;2023-11-19T10:43:22;95565.09;;;14.90;78.50
70684;BME280;58263;48.146;11.440;2023-11-19T10:45:48;95554.22;;;15.37;75.98
70684;BME280;58263;48.146;11.440;2023-11-19T10:48:13;95547.47;;;15.30;75.17
70684;BME280;58263;48.146;11.440;2023-11-19T10:50:40;95558.28;;;15.40;74.72
70684;BME280;58263;48.146;11.440;2023-11-19T10:53:10;95552.72;;;14.99;77.20
70684;BME280;58263;48.146;11.440;2023-11-19T10:55:37;95547.78;;;14.80;76.59
70684;BME280;58263;48.146;11.440;2023-11-19T10:58:07;95556.91;;;14.69;77.76
70684;BME280;58263;48.146;11.440;2023-11-19T11:00:48;95562.06;;;14.76;75.92
70684;BME280;58263;48.146;11.440;2023-11-19T11:03:21;95555.53;;;15.25;74.62
70684;BME280;58263;48.146;11.440;2023-11-19T11:05:48;95538.09;;;15.68;72.75
70684;BME280;58263;48.146;11.440;2023-11-19T11:08:14;95536.97;;;15.54;72.14
70684;BME280;58263;48.146;11.440;2023-11-19T11:10:43;95536.66;;;15.30;73.36
70684;BME280;58263;48.146;11.440;2023-11-19T11:13:09;95542.13;;;15.61;72.48
70684;BME280;58263;48.146;11.440;2023-11-19T11:15:35;95555.63;;;15.55;72.07
70684;BME280;58263;48.146;11.440;2023-11-19T11:18:02;95541.38;;;16.01;71.49
70684;BME280;58263;48.146;11.440;2023-11-19T11:20:32;95521.66;;;16.01;70.68
70684;BME280;58263;48.146;11.440;2023-11-19T11:26:02;95539.16;;;15.57;72.42
70684;BME280;58263;48.146;11.440;2023-11-19T11:28:40;95534.63;;;15.88;72.11
70684;BME280;58263;48.146;11.440;2023-11-19T11:31:34;95526.22;;;16.00;70.75
70684;BME280;58263;48.146;11.440;2023-11-19T11:34:12;95531.88;;;16.61;68.96
70684;BME280;58263;48.146;11.440;2023-11-19T11:39:36;95535.16;;;16.11;69.83
70684;BME280;58263;48.146;11.440;2023-11-19T11:50:25;95506.38;;;16.72;66.22
70684;BME280;58263;48.146;11.440;2023-11-19T11:57:51;95512.88;;;16.76;65.21
70684;BME280;58263;48.146;11.440;2023-11-19T12:02:59;95513.78;;;17.77;62.83
70684;BME280;58263;48.146;11.440;2023-11-19T12:05:25;95510.75;;;17.83;62.88
70684;BME280;58263;48.146;11.440;2023-11-19T12:08:00;95498.16;;;17.58;62.58
70684;BME280;58263;48.146;11.440;2023-11-19T12:10:28;95505.53;;;17.47;63.32
70684;BME280;58263;48.146;11.440;2023-11-19T12:12:58;95511.22;;;17.96;60.21
70684;BME280;58263;48.146;11.440;2023-11-19T12:15:23;95522.91;;;17.46;62.37
70684;BME280;58263;48.146;11.440;2023-11-19T12:17:51;95525.00;;;17.60;61.78
70684;BME280;58263;48.146;11.440;2023-11-19T12:20:18;95523.44;;;17.48;61.71
70684;BME280;58263;48.146;11.440;2023-11-19T12:22:45;95521.56;;;17.44;60.87
70684;BME280;58263;48.146;11.440;2023-11-19T12:25:12;95520.00;;;17.77;60.83
70684;BME280;58263;48.146;11.440;2023-11-19T12:27:49;95515.88;;;16.69;63.31
70684;BME280;58263;48.146;11.440;2023-11-19T12:30:23;95514.88;;;16.19;65.03
70684;BME280;58263;48.146;11.440;2023-11-19T12:32:49;95507.25;;;15.64;66.33
70684;BME280;58263;48.146;11.440;2023-11-19T12:35:14;95482.31;;;16.60;64.51
70684;BME280;58263;48.146;11.440;2023-11-19T12:37:44;95480.38;;;16.81;64.06
70684;BME280;58263;48.146;11.440;2023-11-19T12:40:19;95477.38;;;17.43;62.52
70684;BME280;58263;48.146;11.440;2023-11-19T12:42:47;95484.50;;;17.29;62.71
70684;BME280;58263;48.146;11.440;2023-11-19T12:45:13;95484.13;;;16.96;62.41
70684;BME280;58263;48.146;11.440;2023-11-19T12:47:44;95475.19;;;16.95;61.92
70684;BME280;58263;48.146;11.440;2023-11-19T12:50:12;95475.84;;;16.51;63.63
70684;BME280;58263;48.146;11.440;2023-11-19T12:52:37;95464.81;;;16.21;64.79
70684;BME280;58263;48.146;11.440;2023-11-19T12:55:04;95472.94;;;15.85;65.99
70684;BME280;58263;48.146;11.440;2023-11-19T12:57:41;95470.22;;;15.75;65.76
70684;BME280;58263;48.146;11.440;2023-11-19T13:00:08;95463.19;;;16.20;65.13
70684;BME280;58263;48.146;11.440;2023-11-19T13:02:53;95457.50;;;15.76;66.23
70684;BME280;58263;48.146;11.440;2023-11-19T13:05:23;95469.31;;;15.18;68.35